createdAt,value
2019-02-16T00:00:18.842Z,22.73
2019-02-16T00:02:50.063Z,20.80
2019-02-16T00:05:25.865Z,19.63
2019-02-16T00:07:54.748Z,16.20
2019-02-16T00:10:22.908Z,20.33
2019-02-16T00:12:59.647Z,14.60
2019-02-16T00:15:28.337Z,17.73
2019-02-16T00:17:58.258Z,15.83
2019-02-16T00:20:27.083Z,15.73
2019-02-16T00:22:55.479Z,15.47
2019-02-16T00:25:25.168Z,17.07
2019-02-16T00:27:57.016Z,16.47
2019-02-16T00:30:35.011Z,20.10
2019-02-16T00:33:17.943Z,14.00
2019-02-16T00:35:50.417Z,21.13
2019-02-16T00:38:21.585Z,18.67
2019-02-16T00:41:15.548Z,20.00
2019-02-16T00:43:55.234Z,21.97
2019-02-16T00:46:52.060Z,22.83
2019-02-16T00:49:31.029Z,28.80
2019-02-16T00:52:05.866Z,18.30
2019-02-16T00:54:34.818Z,21.37
2019-02-16T00:57:19.426Z,19.73
2019-02-16T00:59:48.152Z,20.73
2019-02-16T01:02:42.502Z,21.90
2019-02-16T01:05:33.986Z,25.47
2019-02-16T01:08:10.588Z,20.20
2019-02-16T01:10:56.003Z,23.43
2019-02-16T01:13:29.693Z,22.40
2019-02-16T01:16:02.196Z,20.87
2019-02-16T01:18:35.361Z,19.07
2019-02-16T01:21:25.213Z,20.87
2019-02-16T01:23:54.882Z,18.20
2019-02-16T01:26:27.233Z,19.33
2019-02-16T01:29:08.227Z,21.60
2019-02-16T01:31:49.938Z,24.03
2019-02-16T01:34:26.496Z,19.97
2019-02-16T01:37:07.504Z,20.33
2019-02-16T01:40:05.662Z,21.40
2019-02-16T01:42:44.533Z,19.30
2019-02-16T01:45:43.071Z,17.93
2019-02-16T01:48:42.798Z,20.17
2019-02-16T01:51:32.601Z,22.20
2019-02-16T01:54:15.734Z,26.07
2019-02-16T02:00:10.396Z,17.97
2019-02-16T02:03:10.376Z,19.17
2019-02-16T02:05:46.036Z,19.37
2019-02-16T02:08:20.042Z,16.33
2019-02-16T02:11:04.920Z,17.27
2019-02-16T02:13:45.201Z,20.33
2019-02-16T02:16:25.599Z,19.03
2019-02-16T02:19:03.742Z,17.60
2019-02-16T02:25:51.944Z,15.40
2019-02-16T02:29:10.413Z,17.37
2019-02-16T02:33:06.074Z,16.30
2019-02-16T02:39:39.045Z,20.47
2019-02-16T02:42:18.483Z,21.53
2019-02-16T02:44:47.764Z,20.27
2019-02-16T02:47:40.203Z,16.17
2019-02-16T02:50:09.752Z,17.00
2019-02-16T02:52:43.389Z,18.07
2019-02-16T02:55:45.731Z,15.60
2019-02-16T02:58:38.114Z,21.87
2019-02-16T03:01:32.893Z,19.67
2019-02-16T03:04:18.695Z,16.53
2019-02-16T03:07:16.058Z,15.83
2019-02-16T03:09:55.525Z,14.63
2019-02-16T03:12:33.194Z,21.90
2019-02-16T03:15:03.521Z,21.37
2019-02-16T03:17:33.507Z,13.77
2019-02-16T03:20:31.445Z,17.90
2019-02-16T03:23:24.642Z,14.73
2019-02-16T03:26:57.483Z,16.00
2019-02-16T03:30:03.512Z,11.30
2019-02-16T03:33:18.649Z,15.60
2019-02-16T03:36:35.612Z,13.70
2019-02-16T03:42:29.619Z,13.40
2019-02-16T03:45:27.151Z,15.43
2019-02-16T03:48:32.837Z,13.53
2019-02-16T03:51:35.033Z,10.90
2019-02-16T03:57:23.793Z,13.97
2019-02-16T04:00:34.477Z,15.13
2019-02-16T04:03:13.089Z,13.43
2019-02-16T04:06:38.315Z,13.10
2019-02-16T04:09:36.785Z,14.73
2019-02-16T04:12:25.740Z,16.67
2019-02-16T04:14:57.793Z,14.53
2019-02-16T04:18:11.188Z,13.87
2019-02-16T04:21:21.064Z,14.00
2019-02-16T04:30:49.911Z,14.07
2019-02-16T04:33:24.794Z,14.57
2019-02-16T04:36:05.423Z,15.93
2019-02-16T04:39:30.435Z,14.03
2019-02-16T04:42:25.464Z,16.00
2019-02-16T04:45:08.112Z,14.50
2019-02-16T04:47:41.745Z,14.00
2019-02-16T04:50:48.166Z,14.13
2019-02-16T04:53:17.327Z,15.07
2019-02-16T04:55:47.055Z,14.10
2019-02-16T04:58:23.782Z,15.00
2019-02-16T05:01:20.759Z,17.57
2019-02-16T05:04:02.206Z,16.37
2019-02-16T05:07:02.707Z,15.00
2019-02-16T05:09:39.308Z,16.60
2019-02-16T05:12:20.458Z,13.50
2019-02-16T05:14:53.791Z,13.60
2019-02-16T05:17:25.013Z,17.67
2019-02-16T05:19:53.183Z,13.93
2019-02-16T05:22:23.343Z,13.00
2019-02-16T05:25:05.830Z,17.30
2019-02-16T05:27:44.273Z,11.73
2019-02-16T05:30:21.696Z,12.83
2019-02-16T05:33:01.154Z,16.10
2019-02-16T05:35:37.045Z,12.90
2019-02-16T05:38:20.608Z,13.30
2019-02-16T05:40:55.093Z,17.03
2019-02-16T05:43:32.722Z,13.93
2019-02-16T05:46:05.321Z,14.70
2019-02-16T05:48:39.481Z,14.20
2019-02-16T05:51:08.129Z,14.80
2019-02-16T05:53:37.769Z,14.57
2019-02-16T05:56:09.845Z,17.07
2019-02-16T05:58:41.678Z,17.20
2019-02-16T06:01:15.362Z,14.40
2019-02-16T06:03:57.299Z,16.03
2019-02-16T06:06:34.295Z,15.00
2019-02-16T06:13:20.745Z,20.00
2019-02-16T06:16:31.571Z,14.63
2019-02-16T06:19:06.059Z,18.27
2019-02-16T06:21:47.747Z,17.40
2019-02-16T06:24:31.239Z,15.70
2019-02-16T06:27:06.693Z,15.10
2019-02-16T06:29:40.944Z,15.43
2019-02-16T06:32:11.635Z,17.30
2019-02-16T06:34:45.327Z,19.33
2019-02-16T06:37:25.859Z,15.60
2019-02-16T06:39:55.997Z,15.53
2019-02-16T06:50:15.412Z,17.87
2019-02-16T06:53:13.760Z,15.90
2019-02-16T06:56:41.073Z,19.03
2019-02-16T06:59:24.965Z,18.60
2019-02-16T07:02:05.515Z,19.57
2019-02-16T07:05:27.859Z,18.30
2019-02-16T07:08:51.340Z,17.77
2019-02-16T07:11:56.066Z,18.87
2019-02-16T07:18:39.380Z,20.97
2019-02-16T07:28:54.366Z,17.70
2019-02-16T07:31:21.904Z,17.33
2019-02-16T07:33:49.731Z,20.50
2019-02-16T07:36:17.697Z,20.50
2019-02-16T07:38:51.578Z,17.03
2019-02-16T07:41:19.157Z,19.33
2019-02-16T07:44:04.602Z,18.63
2019-02-16T07:46:49.090Z,15.90
2019-02-16T07:49:23.201Z,18.60
2019-02-16T07:52:21.816Z,19.33
2019-02-16T07:55:00.781Z,21.43
2019-02-16T07:57:45.391Z,21.60
2019-02-16T08:00:37.402Z,19.50
2019-02-16T08:03:12.673Z,19.40
2019-02-16T08:05:50.821Z,20.23
2019-02-16T08:08:28.465Z,18.67
2019-02-16T08:11:09.437Z,18.83
2019-02-16T08:14:09.255Z,20.73
2019-02-16T08:17:06.108Z,15.93
2019-02-16T08:19:42.861Z,13.53
2019-02-16T08:22:30.382Z,13.23
2019-02-16T08:25:20.532Z,17.63
2019-02-16T08:28:03.628Z,12.40
2019-02-16T08:30:44.325Z,12.83
2019-02-16T08:33:26.804Z,15.23
2019-02-16T08:43:13.521Z,24.47
2019-02-16T08:46:00.395Z,10.60
2019-02-16T08:49:22.475Z,13.07
2019-02-16T08:52:24.502Z,9.90
2019-02-16T08:55:17.327Z,14.87
2019-02-16T08:57:50.329Z,13.17
2019-02-16T09:00:40.284Z,15.67
2019-02-16T09:03:29.789Z,15.40
2019-02-16T09:06:57.509Z,19.60
2019-02-16T09:09:42.791Z,14.57
2019-02-16T09:13:16.124Z,14.00
2019-02-16T09:15:41.507Z,14.13
2019-02-16T09:18:28.524Z,14.30
2019-02-16T09:21:30.665Z,15.73
2019-02-16T09:24:17.657Z,17.07
2019-02-16T09:27:03.497Z,15.10
2019-02-16T09:29:47.057Z,16.30
2019-02-16T09:32:36.531Z,15.60
2019-02-16T09:35:20.171Z,14.80
2019-02-16T09:37:57.075Z,15.03
2019-02-16T09:40:35.414Z,16.77
2019-02-16T09:43:22.412Z,18.43
2019-02-16T09:45:58.812Z,15.07
2019-02-16T09:48:57.671Z,16.73
2019-02-16T09:51:47.732Z,15.27
2019-02-16T09:54:34.752Z,18.67
2019-02-16T09:57:14.684Z,15.33
2019-02-16T10:00:00.171Z,15.53
2019-02-16T10:02:36.993Z,18.40
2019-02-16T10:05:22.664Z,13.90
2019-02-16T10:08:21.788Z,14.00
2019-02-16T10:10:59.536Z,15.60
2019-02-16T10:13:52.390Z,14.60
2019-02-16T10:16:45.269Z,17.67
2019-02-16T10:19:23.688Z,15.63
2019-02-16T10:22:09.161Z,15.23
2019-02-16T10:25:02.357Z,13.77
2019-02-16T10:27:48.541Z,14.77
2019-02-16T10:30:44.633Z,18.83
2019-02-16T10:33:40.806Z,19.33
2019-02-16T10:36:43.128Z,17.20
2019-02-16T10:39:25.885Z,14.07
2019-02-16T10:42:07.568Z,15.67
2019-02-16T10:44:53.166Z,15.63
2019-02-16T10:47:31.381Z,13.30
2019-02-16T10:50:30.422Z,15.60
2019-02-16T10:53:15.856Z,14.97
2019-02-16T10:56:14.972Z,11.90
2019-02-16T10:58:52.539Z,13.47
2019-02-16T11:01:52.132Z,13.43
2019-02-16T11:04:38.190Z,13.80
2019-02-16T11:07:28.958Z,14.43
2019-02-16T11:10:05.061Z,12.93
2019-02-16T11:16:09.625Z,13.37
2019-02-16T11:18:44.817Z,15.37
2019-02-16T11:21:31.741Z,17.87
2019-02-16T11:24:17.694Z,13.17
2019-02-16T11:27:05.156Z,14.53
2019-02-16T11:30:03.853Z,16.27
2019-02-16T11:36:08.522Z,13.70
2019-02-16T11:39:05.612Z,15.10
2019-02-16T11:42:11.885Z,13.47
2019-02-16T11:44:57.740Z,15.17
2019-02-16T11:48:03.350Z,14.80
2019-02-16T11:51:05.650Z,13.70
2019-02-16T11:59:27.020Z,14.93
2019-02-16T12:04:56.859Z,11.60
2019-02-16T12:07:38.424Z,13.27
2019-02-16T12:10:51.049Z,12.67
2019-02-16T12:13:31.723Z,12.40
2019-02-16T12:19:39.987Z,13.00
2019-02-16T12:22:16.043Z,14.23
2019-02-16T12:25:47.200Z,12.80
2019-02-16T12:28:46.012Z,15.40
2019-02-16T12:31:40.576Z,14.57
2019-02-16T12:41:10.786Z,15.87
2019-02-16T12:44:04.046Z,13.53
2019-02-16T12:46:51.379Z,13.87
2019-02-16T12:49:41.213Z,15.03
2019-02-16T12:52:18.846Z,15.03
2019-02-16T12:55:22.215Z,14.73
2019-02-16T12:58:01.082Z,16.73
2019-02-16T13:00:51.034Z,15.50
2019-02-16T13:04:11.982Z,14.73
2019-02-16T13:07:14.235Z,14.80
2019-02-16T13:10:21.088Z,12.63
2019-02-16T13:16:19.677Z,14.40
2019-02-16T13:19:11.901Z,14.37
2019-02-16T13:26:05.012Z,14.50
2019-02-16T13:29:14.953Z,13.87
2019-02-16T13:32:20.533Z,14.67
2019-02-16T13:35:09.324Z,16.13
2019-02-16T13:38:03.038Z,14.47
2019-02-16T13:40:53.561Z,12.13
2019-02-16T13:43:43.569Z,13.30
2019-02-16T13:46:40.154Z,12.67
2019-02-16T13:49:29.963Z,14.30
2019-02-16T13:52:22.939Z,14.80
2019-02-16T13:55:13.189Z,12.30
2019-02-16T13:58:09.289Z,14.37
2019-02-16T14:00:48.208Z,12.83
2019-02-16T14:03:56.073Z,12.40
2019-02-16T14:10:11.166Z,13.80
2019-02-16T14:12:50.040Z,16.40
2019-02-16T14:15:34.963Z,10.00
2019-02-16T14:18:08.235Z,10.90
2019-02-16T14:20:35.724Z,9.43
2019-02-16T14:23:03.514Z,9.53
2019-02-16T14:25:49.796Z,7.70
2019-02-16T14:28:17.334Z,9.30
2019-02-16T14:30:44.841Z,7.30
2019-02-16T14:33:12.927Z,8.13
2019-02-16T14:35:42.228Z,9.27
2019-02-16T14:38:24.369Z,7.53
2019-02-16T14:41:03.625Z,8.63
2019-02-16T14:43:31.166Z,7.40
2019-02-16T14:45:58.653Z,3.90
2019-02-16T14:48:26.111Z,3.97
2019-02-16T14:50:54.997Z,4.80
2019-02-16T14:53:25.989Z,3.87
2019-02-16T14:55:54.483Z,3.70
2019-02-16T14:58:22.994Z,5.50
2019-02-16T15:00:50.935Z,3.97
2019-02-16T15:03:18.725Z,6.53
2019-02-16T15:05:50.908Z,7.63
2019-02-16T15:08:21.640Z,9.83
2019-02-16T15:10:49.156Z,8.87
2019-02-16T15:13:16.608Z,14.13
2019-02-16T15:15:44.178Z,7.60
2019-02-16T15:18:11.838Z,8.97
2019-02-16T15:20:39.287Z,10.00
2019-02-16T15:23:06.844Z,7.67
2019-02-16T15:25:35.063Z,5.80
2019-02-16T15:28:03.197Z,6.40
2019-02-16T15:30:36.234Z,6.70
2019-02-16T15:33:04.101Z,6.43
2019-02-16T15:35:32.411Z,6.33
2019-02-16T15:38:00.305Z,8.60
2019-02-16T15:40:28.485Z,9.07
2019-02-16T15:43:14.317Z,9.80
2019-02-16T15:45:54.736Z,5.83
2019-02-16T15:48:31.453Z,9.13
2019-02-16T15:51:04.036Z,6.33
2019-02-16T15:53:49.089Z,6.50
2019-02-16T15:56:17.085Z,5.93
2019-02-16T15:58:44.747Z,5.43
2019-02-16T16:01:16.093Z,8.27
2019-02-16T16:03:55.944Z,9.83
2019-02-16T16:06:48.152Z,7.83
2019-02-16T16:09:34.579Z,10.57
2019-02-16T16:13:07.200Z,14.10
2019-02-16T16:15:58.313Z,31.70
2019-02-16T16:19:03.841Z,16.27
2019-02-16T16:22:24.137Z,20.47
2019-02-16T16:25:51.468Z,17.77
2019-02-16T16:28:44.588Z,31.87
2019-02-16T16:31:40.517Z,37.80
2019-02-16T16:34:33.974Z,15.97
2019-02-16T16:37:52.360Z,12.73
2019-02-16T16:40:32.708Z,11.80
2019-02-16T16:43:29.282Z,12.00
2019-02-16T16:46:32.805Z,15.03
2019-02-16T16:49:23.574Z,12.80
2019-02-16T16:52:03.053Z,11.20
2019-02-16T16:54:55.913Z,14.27
2019-02-16T16:57:32.812Z,14.53
2019-02-16T17:00:34.664Z,14.33
2019-02-16T17:03:20.337Z,17.03
2019-02-16T17:06:05.950Z,14.70
2019-02-16T17:08:43.375Z,16.47
2019-02-16T17:11:28.102Z,15.27
2019-02-16T17:14:04.456Z,12.00
2019-02-16T17:16:54.250Z,13.70
2019-02-16T17:19:28.077Z,14.93
2019-02-16T17:22:06.890Z,17.00
2019-02-16T17:25:05.873Z,19.40
2019-02-16T17:27:58.841Z,17.77
2019-02-16T17:30:32.129Z,19.93
2019-02-16T17:33:17.133Z,16.00
2019-02-16T17:36:15.454Z,24.83
2019-02-16T17:39:12.776Z,18.17
2019-02-16T17:41:45.640Z,26.60
2019-02-16T17:44:26.555Z,20.27
2019-02-16T17:47:16.288Z,24.23
2019-02-16T17:49:57.534Z,16.87
2019-02-16T17:52:56.749Z,19.63
2019-02-16T17:55:42.371Z,21.30
2019-02-16T17:58:28.644Z,20.73
2019-02-16T18:01:18.667Z,24.23
2019-02-16T18:04:04.604Z,23.00
2019-02-16T18:06:54.292Z,18.70
2019-02-16T18:09:41.260Z,25.13
2019-02-16T18:12:26.877Z,25.93
2019-02-16T18:15:19.462Z,29.53
2019-02-16T18:18:00.714Z,30.90
2019-02-16T18:20:38.528Z,21.93
2019-02-16T18:23:28.444Z,27.90
2019-02-16T18:26:19.320Z,24.13
2019-02-16T18:29:21.191Z,26.73
2019-02-16T18:32:06.611Z,22.70
2019-02-16T18:34:52.185Z,28.50
2019-02-16T18:37:34.268Z,22.40
2019-02-16T18:40:11.514Z,26.87
2019-02-16T18:43:01.220Z,29.93
2019-02-16T18:45:53.964Z,32.47
2019-02-16T18:48:39.835Z,29.60
2019-02-16T18:51:41.947Z,26.87
2019-02-16T18:54:37.869Z,21.27
2019-02-16T18:57:14.988Z,25.00
2019-02-16T19:00:02.743Z,19.00
2019-02-16T19:02:43.492Z,18.40
2019-02-16T19:05:20.779Z,14.87
2019-02-16T19:08:05.963Z,19.53
2019-02-16T19:10:51.067Z,16.87
2019-02-16T19:13:41.872Z,14.80
2019-02-16T19:16:21.126Z,16.27
2019-02-16T19:19:19.723Z,17.87
2019-02-16T19:22:07.376Z,18.73
2019-02-16T19:25:12.630Z,25.13
2019-02-16T19:27:51.711Z,24.13
2019-02-16T19:30:35.845Z,22.03
2019-02-16T19:33:34.612Z,19.90
2019-02-16T19:36:30.353Z,19.20
2019-02-16T19:39:12.831Z,21.13
2019-02-16T19:42:00.256Z,21.50
2019-02-16T19:44:36.073Z,21.47
2019-02-16T19:47:28.359Z,25.30
2019-02-16T19:50:04.485Z,19.20
2019-02-16T19:52:54.981Z,17.53
2019-02-16T19:55:48.443Z,21.33
2019-02-16T19:58:35.028Z,21.83
2019-02-16T20:01:22.091Z,24.47
2019-02-16T20:04:07.212Z,19.50
2019-02-16T20:06:48.813Z,18.27
2019-02-16T20:09:33.274Z,24.10
2019-02-16T20:12:22.476Z,30.70
2019-02-16T20:14:56.026Z,23.03
2019-02-16T20:17:31.193Z,22.73
2019-02-16T20:20:10.746Z,22.17
2019-02-16T20:23:00.702Z,25.07
2019-02-16T20:25:50.482Z,27.43
2019-02-16T20:28:28.593Z,26.03
2019-02-16T20:31:12.019Z,21.93
2019-02-16T20:33:59.262Z,27.67
2019-02-16T20:36:32.587Z,26.33
2019-02-16T20:39:18.222Z,22.50
2019-02-16T20:42:04.234Z,27.13
2019-02-16T20:44:54.052Z,22.87
2019-02-16T20:47:50.010Z,24.50
2019-02-16T20:50:32.910Z,24.37
2019-02-16T20:53:18.392Z,22.77
2019-02-16T20:56:06.038Z,19.80
2019-02-16T20:59:02.287Z,21.20
2019-02-16T21:01:49.611Z,23.10
2019-02-16T21:04:49.384Z,22.20
2019-02-16T21:07:49.262Z,24.77
2019-02-16T21:10:39.411Z,18.90
2019-02-16T21:13:32.598Z,21.13
2019-02-16T21:16:19.841Z,19.93
2019-02-16T21:19:09.351Z,21.07
2019-02-16T21:22:01.021Z,19.80
2019-02-16T21:24:51.155Z,26.50
2019-02-16T21:27:41.008Z,24.67
2019-02-16T21:30:29.882Z,21.23
2019-02-16T21:33:17.210Z,25.03
2019-02-16T21:36:02.484Z,22.03
2019-02-16T21:38:48.036Z,24.13
2019-02-16T21:41:41.178Z,27.17
2019-02-16T21:44:23.007Z,32.87
2019-02-16T21:47:12.043Z,32.57
2019-02-16T21:50:02.671Z,27.30
2019-02-16T21:52:49.593Z,30.20
2019-02-16T21:55:27.351Z,26.13
2019-02-16T21:58:08.370Z,27.43
2019-02-16T22:01:02.815Z,26.07
2019-02-16T22:03:59.485Z,24.80
2019-02-16T22:06:46.807Z,29.60
2019-02-16T22:09:39.947Z,24.70
2019-02-16T22:12:25.734Z,26.30
2019-02-16T22:15:08.621Z,21.10
2019-02-16T22:17:41.396Z,22.93
2019-02-16T22:20:19.007Z,21.27
2019-02-16T22:22:52.632Z,25.27
2019-02-16T22:25:24.438Z,26.83
2019-02-16T22:28:18.305Z,26.93
2019-02-16T22:30:44.001Z,27.67
2019-02-16T22:33:11.870Z,36.70
2019-02-16T22:35:45.939Z,32.43
2019-02-16T22:38:15.687Z,34.20
2019-02-16T22:40:46.710Z,36.43
2019-02-16T22:43:17.380Z,31.30
2019-02-16T22:45:45.985Z,31.40
2019-02-16T22:48:20.020Z,36.53
2019-02-16T22:50:48.027Z,34.67
2019-02-16T22:53:15.857Z,29.03
2019-02-16T22:55:44.152Z,30.10
2019-02-16T22:58:11.882Z,30.43
2019-02-16T23:00:43.875Z,32.93
2019-02-16T23:03:12.593Z,37.30
2019-02-16T23:05:40.825Z,32.20
2019-02-16T23:08:08.917Z,30.00
2019-02-16T23:10:39.082Z,35.17
2019-02-16T23:13:07.414Z,29.67
2019-02-16T23:15:35.709Z,30.17
2019-02-16T23:18:03.906Z,30.23
2019-02-16T23:20:31.789Z,29.80
2019-02-16T23:22:59.660Z,38.43
2019-02-16T23:25:27.427Z,35.33
2019-02-16T23:27:55.225Z,32.70
2019-02-16T23:30:24.424Z,34.60
2019-02-16T23:32:52.516Z,32.67
2019-02-16T23:35:20.861Z,27.60
2019-02-16T23:37:48.573Z,32.60
2019-02-16T23:40:16.655Z,33.60
2019-02-16T23:42:44.665Z,42.77
2019-02-16T23:45:14.904Z,37.50
2019-02-16T23:47:45.418Z,37.13
2019-02-16T23:50:13.847Z,38.70
2019-02-16T23:52:44.920Z,47.90
2019-02-16T23:55:13.075Z,42.83
2019-02-16T23:57:40.900Z,48.87
